createdAt,value
2023-03-31T00:00:52.948Z,26.04
2023-03-31T00:01:53.161Z,26.02
2023-03-31T00:02:53.030Z,26.00
2023-03-31T00:03:53.180Z,26.01
2023-03-31T00:04:53.252Z,26.02
2023-03-31T00:05:53.065Z,26.02
2023-03-31T00:06:53.081Z,26.00
2023-03-31T00:07:53.078Z,26.00
2023-03-31T00:08:53.127Z,26.00
2023-03-31T00:09:55.110Z,26.01
2023-03-31T00:10:54.124Z,26.02
2023-03-31T00:11:53.125Z,26.01
2023-03-31T00:12:53.107Z,26.02
2023-03-31T00:13:53.101Z,26.02
2023-03-31T00:14:53.095Z,26.02
2023-03-31T00:15:54.398Z,26.01
2023-03-31T00:16:53.182Z,25.98
2023-03-31T00:17:53.088Z,26.02
2023-03-31T00:18:53.074Z,26.02
2023-03-31T00:19:53.065Z,25.98
2023-03-31T00:20:53.055Z,25.98
2023-03-31T00:21:53.076Z,26.01
2023-03-31T00:22:53.028Z,26.00
2023-03-31T00:23:53.033Z,26.00
2023-03-31T00:24:53.027Z,26.01
2023-03-31T00:25:53.008Z,26.01
2023-03-31T00:26:53.016Z,26.00
2023-03-31T00:27:53.003Z,26.00
2023-03-31T00:28:53.018Z,26.01
2023-03-31T00:29:53.088Z,26.00
2023-03-31T00:30:53.068Z,26.02
2023-03-31T00:31:53.137Z,25.98
2023-03-31T00:32:53.137Z,26.01
2023-03-31T00:33:53.141Z,26.01
2023-03-31T00:34:53.169Z,26.00
2023-03-31T00:35:53.217Z,26.01
2023-03-31T00:36:53.218Z,25.98
2023-03-31T00:37:53.223Z,26.00
2023-03-31T00:38:53.289Z,26.01
2023-03-31T00:39:53.289Z,26.00
2023-03-31T00:40:53.925Z,26.01
2023-03-31T00:41:53.350Z,25.98
2023-03-31T00:42:53.403Z,25.98
2023-03-31T00:43:53.410Z,25.97
2023-03-31T00:44:53.419Z,26.00
2023-03-31T00:45:53.457Z,25.98
2023-03-31T00:46:53.450Z,26.00
2023-03-31T00:47:53.490Z,25.98
2023-03-31T00:48:53.507Z,26.01
2023-03-31T00:49:53.534Z,25.97
2023-03-31T00:50:53.560Z,25.97
2023-03-31T00:51:53.590Z,25.97
2023-03-31T00:52:53.600Z,25.98
2023-03-31T00:53:53.633Z,25.97
2023-03-31T00:54:53.669Z,25.98
2023-03-31T00:55:53.702Z,26.01
2023-03-31T00:56:53.705Z,25.97
2023-03-31T00:57:53.739Z,26.00
2023-03-31T00:58:53.779Z,25.98
2023-03-31T00:59:53.793Z,25.98
2023-03-31T01:00:53.826Z,25.98
2023-03-31T01:01:53.812Z,25.97
2023-03-31T01:02:53.900Z,25.95
2023-03-31T01:03:53.883Z,25.97
2023-03-31T01:04:53.888Z,25.97
2023-03-31T01:05:53.924Z,26.00
2023-03-31T01:06:53.956Z,26.01
2023-03-31T01:07:53.956Z,25.98
2023-03-31T01:08:53.989Z,25.95
2023-03-31T01:09:54.010Z,25.95
2023-03-31T01:10:54.049Z,25.95
2023-03-31T01:11:54.071Z,25.98
2023-03-31T01:12:54.114Z,25.97
2023-03-31T01:13:54.116Z,25.97
2023-03-31T01:14:54.219Z,25.95
2023-03-31T01:15:54.150Z,25.98
2023-03-31T01:16:54.246Z,25.98
2023-03-31T01:17:54.256Z,25.97
2023-03-31T01:18:54.232Z,25.95
2023-03-31T01:19:54.253Z,25.95
2023-03-31T01:20:54.314Z,25.95
2023-03-31T01:21:54.286Z,25.97
2023-03-31T01:22:54.321Z,25.95
2023-03-31T01:23:54.337Z,25.95
2023-03-31T01:24:54.359Z,25.94
2023-03-31T01:25:54.402Z,25.97
2023-03-31T01:26:54.408Z,25.97
2023-03-31T01:27:54.447Z,25.95
2023-03-31T01:28:54.482Z,25.94
2023-03-31T01:29:54.505Z,25.95
2023-03-31T01:30:54.557Z,25.97
2023-03-31T01:31:54.566Z,25.95
2023-03-31T01:32:54.648Z,25.95
2023-03-31T01:33:54.592Z,25.95
2023-03-31T01:34:54.631Z,25.95
2023-03-31T01:35:54.653Z,25.97
2023-03-31T01:36:54.691Z,25.97
2023-03-31T01:37:54.715Z,25.98
2023-03-31T01:38:54.720Z,25.94
2023-03-31T01:39:54.757Z,25.94
2023-03-31T01:40:54.786Z,25.95
2023-03-31T01:41:54.831Z,25.98
2023-03-31T01:42:54.851Z,25.95
2023-03-31T01:43:54.878Z,25.94
2023-03-31T01:44:54.892Z,25.95
2023-03-31T01:45:55.007Z,25.95
2023-03-31T01:46:54.964Z,25.95
2023-03-31T01:47:55.002Z,25.95
2023-03-31T01:48:54.987Z,25.94
2023-03-31T01:49:55.034Z,25.95
2023-03-31T01:50:55.051Z,25.97
2023-03-31T01:51:55.128Z,25.94
2023-03-31T01:52:55.112Z,25.92
2023-03-31T01:53:55.138Z,25.94
2023-03-31T01:54:55.153Z,25.95
2023-03-31T01:55:55.184Z,25.94
2023-03-31T01:56:55.248Z,25.97
2023-03-31T01:57:55.236Z,25.94
2023-03-31T01:58:55.280Z,25.94
2023-03-31T01:59:55.311Z,25.94
2023-03-31T02:00:55.491Z,25.94
2023-03-31T02:01:55.415Z,25.94
2023-03-31T02:02:55.443Z,25.92
2023-03-31T02:03:55.471Z,25.95
2023-03-31T02:04:55.428Z,25.95
2023-03-31T02:05:55.509Z,25.92
2023-03-31T02:06:55.483Z,25.92
2023-03-31T02:07:55.523Z,25.92
2023-03-31T02:08:55.553Z,25.95
2023-03-31T02:09:55.585Z,25.94
2023-03-31T02:10:55.605Z,25.92
2023-03-31T02:11:55.616Z,25.94
2023-03-31T02:12:55.655Z,25.94
2023-03-31T02:13:55.682Z,25.92
2023-03-31T02:14:55.702Z,25.94
2023-03-31T02:15:55.800Z,25.95
2023-03-31T02:16:55.767Z,25.92
2023-03-31T02:17:55.854Z,25.91
2023-03-31T02:18:55.806Z,25.92
2023-03-31T02:19:55.851Z,25.92
2023-03-31T02:20:55.872Z,25.94
2023-03-31T02:21:55.919Z,25.92
2023-03-31T02:22:55.952Z,25.95
2023-03-31T02:23:55.962Z,25.91
2023-03-31T02:24:56.001Z,25.95
2023-03-31T02:25:56.013Z,25.94
2023-03-31T02:26:56.054Z,25.92
2023-03-31T02:27:56.098Z,25.91
2023-03-31T02:28:56.121Z,25.92
2023-03-31T02:29:56.132Z,25.94
2023-03-31T02:30:56.179Z,25.94
2023-03-31T02:31:56.349Z,25.92
2023-03-31T02:32:56.290Z,25.91
2023-03-31T02:33:56.242Z,25.92
2023-03-31T02:34:56.273Z,25.91
2023-03-31T02:35:56.349Z,25.92
2023-03-31T02:36:56.330Z,25.91
2023-03-31T02:37:56.369Z,25.91
2023-03-31T02:38:56.410Z,25.92
2023-03-31T02:39:56.426Z,25.92
2023-03-31T02:40:56.464Z,25.90
2023-03-31T02:41:56.486Z,25.91
2023-03-31T02:42:56.507Z,25.91
2023-03-31T02:43:56.531Z,25.90
2023-03-31T02:44:56.561Z,25.91
2023-03-31T02:45:56.598Z,25.92
2023-03-31T02:46:56.620Z,25.90
2023-03-31T02:47:56.681Z,25.92
2023-03-31T02:48:56.749Z,25.90
2023-03-31T02:49:56.689Z,25.91
2023-03-31T02:50:56.728Z,25.92
2023-03-31T02:51:56.743Z,25.91
2023-03-31T02:52:56.758Z,25.91
2023-03-31T02:53:56.791Z,25.92
2023-03-31T02:54:56.830Z,25.91
2023-03-31T02:55:56.854Z,25.88
2023-03-31T02:56:56.945Z,25.91
2023-03-31T02:57:56.896Z,25.88
2023-03-31T02:58:56.918Z,25.90
2023-03-31T02:59:56.935Z,25.92
2023-03-31T03:00:57.034Z,25.91
2023-03-31T03:01:57.025Z,25.90
2023-03-31T03:02:57.165Z,25.92
2023-03-31T03:03:57.058Z,25.91
2023-03-31T03:04:57.077Z,25.92
2023-03-31T03:05:57.128Z,25.90
2023-03-31T03:06:57.181Z,25.88
2023-03-31T03:07:57.184Z,25.90
2023-03-31T03:08:57.204Z,25.92
2023-03-31T03:09:57.212Z,25.91
2023-03-31T03:10:57.255Z,25.92
2023-03-31T03:11:57.270Z,25.91
2023-03-31T03:12:57.306Z,25.90
2023-03-31T03:13:57.329Z,25.91
2023-03-31T03:14:57.364Z,25.91
2023-03-31T03:15:57.378Z,25.91
2023-03-31T03:16:57.618Z,25.90
2023-03-31T03:17:57.467Z,25.88
2023-03-31T03:18:57.487Z,25.90
2023-03-31T03:19:57.522Z,25.90
2023-03-31T03:20:57.540Z,25.90
2023-03-31T03:21:57.571Z,25.90
2023-03-31T03:22:57.567Z,25.88
2023-03-31T03:23:57.608Z,25.88
2023-03-31T03:24:57.650Z,25.87
2023-03-31T03:25:57.674Z,25.88
2023-03-31T03:26:57.733Z,25.88
2023-03-31T03:27:57.724Z,25.90
2023-03-31T03:28:57.796Z,25.90
2023-03-31T03:29:57.800Z,25.91
2023-03-31T03:30:57.855Z,25.87
2023-03-31T03:31:57.854Z,25.88
2023-03-31T03:32:57.938Z,25.88
2023-03-31T03:33:57.903Z,25.87
2023-03-31T03:34:57.936Z,25.88
2023-03-31T03:35:58.013Z,25.88
2023-03-31T03:36:57.996Z,25.90
2023-03-31T03:37:58.019Z,25.88
2023-03-31T03:38:58.022Z,25.88
2023-03-31T03:39:58.054Z,25.85
2023-03-31T03:40:58.084Z,25.88
2023-03-31T03:41:58.118Z,25.87
2023-03-31T03:42:58.157Z,25.88
2023-03-31T03:43:58.194Z,25.88
2023-03-31T03:44:58.225Z,25.85
2023-03-31T03:45:58.259Z,25.90
2023-03-31T03:46:58.282Z,25.88
2023-03-31T03:47:58.386Z,25.87
2023-03-31T03:48:58.410Z,25.87
2023-03-31T03:49:58.378Z,25.87
2023-03-31T03:50:58.418Z,25.87
2023-03-31T03:51:58.432Z,25.88
2023-03-31T03:52:58.479Z,25.87
2023-03-31T03:53:58.511Z,25.85
2023-03-31T03:54:58.531Z,25.87
2023-03-31T03:55:58.542Z,25.87
2023-03-31T03:56:58.631Z,25.88
2023-03-31T03:57:58.618Z,25.85
2023-03-31T03:58:58.697Z,25.90
2023-03-31T03:59:58.686Z,25.87
2023-03-31T04:00:58.699Z,25.88
2023-03-31T04:01:58.780Z,25.87
2023-03-31T04:02:58.801Z,25.87
2023-03-31T04:03:58.810Z,25.87
2023-03-31T04:04:58.879Z,25.85
2023-03-31T04:05:58.880Z,25.88
2023-03-31T04:06:58.893Z,25.85
2023-03-31T04:07:58.924Z,25.85
2023-03-31T04:08:58.957Z,25.87
2023-03-31T04:09:59.001Z,25.85
2023-03-31T04:10:59.024Z,25.87
2023-03-31T04:11:59.064Z,25.87
2023-03-31T04:12:59.066Z,25.87
2023-03-31T04:13:59.092Z,25.85
2023-03-31T04:14:59.143Z,25.87
2023-03-31T04:15:59.176Z,25.87
2023-03-31T04:16:59.191Z,25.87
2023-03-31T04:17:59.256Z,25.87
2023-03-31T04:18:59.224Z,25.88
2023-03-31T04:19:59.256Z,25.87
2023-03-31T04:20:59.287Z,25.87
2023-03-31T04:21:59.338Z,25.91
2023-03-31T04:22:59.356Z,25.85
2023-03-31T04:23:59.385Z,25.87
2023-03-31T04:24:59.452Z,25.87
2023-03-31T04:25:59.448Z,25.87
2023-03-31T04:26:59.466Z,25.85
2023-03-31T04:27:59.535Z,25.84
2023-03-31T04:28:59.536Z,25.87
2023-03-31T04:29:59.573Z,25.85
2023-03-31T04:30:59.600Z,25.85
2023-03-31T04:31:59.684Z,25.87
2023-03-31T04:32:59.674Z,25.85
2023-03-31T04:33:59.709Z,25.85
2023-03-31T04:34:59.737Z,25.87
2023-03-31T04:35:59.731Z,25.85
2023-03-31T04:36:59.787Z,25.87
2023-03-31T04:37:59.792Z,25.88
2023-03-31T04:38:59.807Z,25.87
2023-03-31T04:39:59.871Z,25.85
2023-03-31T04:40:59.862Z,25.87
2023-03-31T04:41:59.949Z,25.88
2023-03-31T04:42:59.945Z,25.87
2023-03-31T04:43:59.953Z,25.85
2023-03-31T04:44:59.986Z,25.85
2023-03-31T04:46:00.115Z,25.84
2023-03-31T04:47:00.098Z,25.84
2023-03-31T04:48:00.158Z,25.84
2023-03-31T04:49:00.113Z,25.85
2023-03-31T04:50:00.159Z,25.85
2023-03-31T04:51:00.196Z,25.87
2023-03-31T04:52:00.199Z,25.87
2023-03-31T04:53:00.246Z,25.84
2023-03-31T04:54:00.280Z,25.85
2023-03-31T04:55:00.311Z,25.84
2023-03-31T04:56:00.348Z,25.84
2023-03-31T04:57:00.419Z,25.87
2023-03-31T04:58:00.397Z,25.87
2023-03-31T04:59:00.442Z,25.85
2023-03-31T05:00:00.483Z,25.84
2023-03-31T05:01:00.529Z,25.88
2023-03-31T05:02:00.558Z,25.84
2023-03-31T05:03:00.650Z,25.85
2023-03-31T05:04:00.603Z,25.87
2023-03-31T05:05:00.635Z,25.83
2023-03-31T05:06:00.701Z,25.87
2023-03-31T05:07:00.774Z,25.85
2023-03-31T05:08:00.736Z,25.87
2023-03-31T05:09:00.800Z,25.85
2023-03-31T05:10:00.794Z,25.85
2023-03-31T05:11:00.851Z,25.84
2023-03-31T05:12:00.902Z,25.84
2023-03-31T05:13:00.911Z,25.85
2023-03-31T05:14:00.958Z,25.85
2023-03-31T05:15:00.973Z,25.85
2023-03-31T05:16:01.093Z,25.85
2023-03-31T05:17:01.122Z,25.87
2023-03-31T05:18:01.152Z,25.85
2023-03-31T05:19:01.097Z,25.87
2023-03-31T05:20:01.147Z,25.87
2023-03-31T05:21:01.165Z,25.88
2023-03-31T05:22:01.225Z,25.85
2023-03-31T05:23:01.234Z,25.85
2023-03-31T05:24:01.271Z,25.85
2023-03-31T05:25:01.301Z,25.88
2023-03-31T05:26:01.348Z,25.85
2023-03-31T05:27:01.372Z,25.87
2023-03-31T05:28:01.439Z,25.85
2023-03-31T05:29:01.460Z,25.85
2023-03-31T05:30:01.546Z,25.87
2023-03-31T05:31:01.536Z,25.88
2023-03-31T05:32:01.588Z,25.88
2023-03-31T05:33:02.140Z,25.90
2023-03-31T05:34:01.633Z,25.91
2023-03-31T05:35:01.674Z,25.91
2023-03-31T05:36:01.724Z,25.97
2023-03-31T05:37:01.733Z,25.97
2023-03-31T05:38:01.721Z,26.00
2023-03-31T05:39:01.740Z,26.00
2023-03-31T05:40:01.749Z,26.01
2023-03-31T05:41:01.788Z,26.02
2023-03-31T05:42:01.832Z,26.09
2023-03-31T05:43:02.072Z,26.11
2023-03-31T05:44:01.810Z,26.12
2023-03-31T05:45:01.813Z,26.15
2023-03-31T05:46:01.879Z,26.20
2023-03-31T05:47:01.811Z,26.24
2023-03-31T05:48:01.849Z,26.27
2023-03-31T05:49:01.791Z,26.30
2023-03-31T05:50:01.828Z,26.32
2023-03-31T05:51:01.825Z,26.36
2023-03-31T05:52:01.827Z,26.34
2023-03-31T05:53:02.087Z,26.39
2023-03-31T05:54:01.809Z,26.41
2023-03-31T05:55:01.839Z,26.46
2023-03-31T05:56:01.914Z,26.45
2023-03-31T05:57:01.950Z,26.46
2023-03-31T05:58:02.001Z,26.49
2023-03-31T05:59:02.045Z,26.49
2023-03-31T06:00:02.122Z,26.53
2023-03-31T06:01:02.201Z,26.53
2023-03-31T06:02:02.287Z,26.58
2023-03-31T06:03:02.458Z,26.60
2023-03-31T06:04:02.357Z,26.62
2023-03-31T06:05:02.332Z,26.62
2023-03-31T06:06:02.393Z,26.62
2023-03-31T06:07:02.405Z,26.63
2023-03-31T06:08:02.436Z,26.64
2023-03-31T06:09:02.447Z,26.63
2023-03-31T06:10:02.470Z,26.68
2023-03-31T06:11:02.505Z,26.69
2023-03-31T06:12:02.527Z,26.73
2023-03-31T06:13:02.567Z,26.71
2023-03-31T06:14:03.088Z,26.75
2023-03-31T06:15:02.601Z,26.73
2023-03-31T06:16:02.761Z,26.75
2023-03-31T06:17:02.681Z,26.76
2023-03-31T06:18:02.763Z,26.72
2023-03-31T06:19:02.775Z,26.73
2023-03-31T06:20:07.716Z,26.69
2023-03-31T06:21:03.981Z,26.69
2023-03-31T06:22:02.782Z,26.66
2023-03-31T06:23:02.764Z,26.66
2023-03-31T06:24:02.764Z,26.64
2023-03-31T06:25:02.747Z,26.60
2023-03-31T06:26:02.752Z,26.56
2023-03-31T06:27:02.883Z,26.49
2023-03-31T06:28:02.743Z,26.42
2023-03-31T06:29:02.739Z,26.34
2023-03-31T06:30:02.702Z,26.20
2023-03-31T06:31:02.826Z,26.08
2023-03-31T06:32:02.865Z,26.01
2023-03-31T06:33:03.098Z,25.87
2023-03-31T06:34:03.078Z,25.71
2023-03-31T06:35:02.681Z,25.60
2023-03-31T06:36:02.691Z,25.57
2023-03-31T06:37:02.672Z,25.60
2023-03-31T06:38:02.690Z,25.61
2023-03-31T06:39:02.744Z,25.66
2023-03-31T06:40:02.802Z,25.70
2023-03-31T06:41:02.979Z,25.76
2023-03-31T06:42:02.869Z,25.81
2023-03-31T06:43:02.897Z,25.88
2023-03-31T06:44:02.932Z,25.95
2023-03-31T06:45:03.041Z,26.02
2023-03-31T06:46:02.969Z,26.08
2023-03-31T06:47:02.954Z,26.15
2023-03-31T06:48:03.000Z,26.20
2023-03-31T06:49:03.092Z,26.27
2023-03-31T06:50:02.959Z,26.34
2023-03-31T06:51:02.992Z,26.38
2023-03-31T06:52:03.004Z,26.41
2023-03-31T06:53:03.084Z,26.49
2023-03-31T06:54:03.601Z,26.51
2023-03-31T06:55:03.251Z,26.53
2023-03-31T06:56:03.291Z,26.58
2023-03-31T06:57:03.303Z,26.63
2023-03-31T06:58:03.303Z,26.64
2023-03-31T06:59:03.346Z,26.68
2023-03-31T07:00:03.320Z,26.71
2023-03-31T07:01:03.369Z,26.72
2023-03-31T07:02:03.460Z,26.75
2023-03-31T07:03:03.518Z,26.76
2023-03-31T07:04:03.583Z,26.79
2023-03-31T07:05:03.584Z,26.79
2023-03-31T07:06:03.589Z,26.81
2023-03-31T07:07:03.638Z,26.82
2023-03-31T07:08:03.715Z,26.83
2023-03-31T07:09:04.098Z,26.82
2023-03-31T07:10:03.876Z,26.83
2023-03-31T07:11:04.082Z,26.87
2023-03-31T07:12:03.980Z,26.87
2023-03-31T07:13:05.702Z,26.90
2023-03-31T07:14:04.087Z,26.89
2023-03-31T07:15:04.143Z,26.89
2023-03-31T07:16:04.333Z,26.92
2023-03-31T07:17:04.261Z,26.92
2023-03-31T07:18:04.393Z,26.93
2023-03-31T07:19:04.593Z,26.96
2023-03-31T07:20:04.442Z,26.96
2023-03-31T07:21:05.971Z,26.96
2023-03-31T07:22:04.465Z,26.96
2023-03-31T07:23:04.461Z,26.97
2023-03-31T07:24:04.479Z,26.97
2023-03-31T07:25:04.561Z,26.99
2023-03-31T07:26:04.447Z,27.00
2023-03-31T07:27:04.442Z,27.02
2023-03-31T07:28:04.451Z,27.00
2023-03-31T07:29:04.454Z,27.04
2023-03-31T07:30:04.608Z,27.03
2023-03-31T07:31:04.586Z,27.04
2023-03-31T07:32:04.478Z,27.07
2023-03-31T07:33:04.464Z,27.07
2023-03-31T07:34:04.613Z,27.07
2023-03-31T07:35:04.382Z,27.09
2023-03-31T07:36:11.779Z,27.07
2023-03-31T07:37:05.394Z,27.11
2023-03-31T07:38:04.358Z,27.10
2023-03-31T07:39:04.625Z,27.09
2023-03-31T07:40:04.599Z,27.09
2023-03-31T07:41:08.974Z,27.07
2023-03-31T07:42:05.374Z,27.07
2023-03-31T07:43:04.334Z,27.04
2023-03-31T07:44:04.335Z,27.04
2023-03-31T07:45:04.613Z,27.02
2023-03-31T07:46:04.440Z,27.02
2023-03-31T07:47:04.295Z,27.00
2023-03-31T07:48:04.331Z,26.99
2023-03-31T07:49:04.287Z,27.02
2023-03-31T07:50:04.348Z,27.00
2023-03-31T07:51:04.513Z,27.02
2023-03-31T07:52:04.377Z,26.99
2023-03-31T07:53:06.321Z,26.97
2023-03-31T07:54:04.525Z,26.99
2023-03-31T07:55:04.568Z,26.97
2023-03-31T07:56:04.876Z,26.97
2023-03-31T07:57:04.731Z,26.97
2023-03-31T07:58:04.758Z,26.94
2023-03-31T07:59:04.825Z,26.94
2023-03-31T08:00:04.889Z,26.92
2023-03-31T08:01:05.263Z,26.92
2023-03-31T08:02:05.051Z,26.93
2023-03-31T08:03:05.091Z,26.94
2023-03-31T08:04:05.184Z,26.90
2023-03-31T08:05:05.218Z,26.93
2023-03-31T08:06:05.530Z,26.89
2023-03-31T08:07:05.351Z,26.92
2023-03-31T08:08:05.375Z,26.92
2023-03-31T08:09:05.641Z,26.92
2023-03-31T08:10:05.456Z,26.92
2023-03-31T08:11:05.607Z,26.89
2023-03-31T08:12:05.582Z,26.87
2023-03-31T08:13:05.604Z,26.86
2023-03-31T08:14:05.639Z,26.86
2023-03-31T08:15:05.673Z,26.87
2023-03-31T08:16:05.911Z,26.87
2023-03-31T08:17:05.753Z,26.85
2023-03-31T08:18:05.890Z,26.83
2023-03-31T08:19:05.858Z,26.85
2023-03-31T08:20:07.916Z,26.85
2023-03-31T08:21:06.175Z,26.82
2023-03-31T08:22:06.126Z,26.83
2023-03-31T08:23:06.031Z,26.82
2023-03-31T08:24:06.104Z,26.83
2023-03-31T08:25:06.149Z,26.85
2023-03-31T08:26:06.311Z,26.87
2023-03-31T08:27:11.963Z,26.87
2023-03-31T08:28:07.245Z,26.87
2023-03-31T08:29:06.224Z,26.89
2023-03-31T08:30:06.217Z,26.92
2023-03-31T08:31:06.218Z,26.92
2023-03-31T08:32:06.392Z,26.87
2023-03-31T08:33:06.277Z,26.93
2023-03-31T08:34:06.248Z,26.89
2023-03-31T08:35:06.200Z,26.92
2023-03-31T08:36:06.322Z,26.93
2023-03-31T08:37:06.644Z,26.89
2023-03-31T08:38:06.165Z,26.89
2023-03-31T08:39:06.190Z,26.87
2023-03-31T08:40:06.649Z,26.87
2023-03-31T08:41:06.160Z,26.89
2023-03-31T08:42:07.042Z,26.90
2023-03-31T08:43:06.312Z,26.87
2023-03-31T08:44:06.379Z,26.90
2023-03-31T08:45:06.439Z,26.93
2023-03-31T08:46:06.625Z,26.93
2023-03-31T08:47:06.578Z,26.94
2023-03-31T08:48:07.572Z,26.94
2023-03-31T08:49:06.695Z,26.97
2023-03-31T08:50:06.752Z,26.99
2023-03-31T08:51:06.936Z,26.97
2023-03-31T08:52:07.151Z,27.02
2023-03-31T08:53:06.915Z,27.07
2023-03-31T08:54:06.972Z,27.03
2023-03-31T08:55:07.005Z,27.09
2023-03-31T08:56:07.275Z,27.09
2023-03-31T08:57:07.100Z,27.11
2023-03-31T08:58:07.140Z,27.13
2023-03-31T08:59:07.201Z,27.14
2023-03-31T09:00:07.750Z,27.18
2023-03-31T09:01:07.412Z,27.17
2023-03-31T09:02:07.386Z,27.18
2023-03-31T09:03:07.647Z,27.22
2023-03-31T09:04:09.348Z,27.22
2023-03-31T09:05:07.393Z,27.20
2023-03-31T09:06:07.378Z,27.24
2023-03-31T09:07:07.386Z,27.23
2023-03-31T09:08:07.366Z,27.23
2023-03-31T09:09:07.345Z,27.23
2023-03-31T09:10:07.764Z,27.24
2023-03-31T09:11:07.320Z,27.24
2023-03-31T09:12:07.335Z,27.27
2023-03-31T09:13:07.726Z,27.24
2023-03-31T09:14:07.307Z,27.18
2023-03-31T09:15:07.308Z,27.24
2023-03-31T09:16:07.542Z,27.23
2023-03-31T09:17:07.365Z,27.22
2023-03-31T09:18:07.339Z,27.23
2023-03-31T09:19:07.271Z,27.22
2023-03-31T09:20:07.259Z,27.24
2023-03-31T09:21:07.551Z,27.29
2023-03-31T09:22:07.239Z,27.29
2023-03-31T09:23:07.237Z,27.27
2023-03-31T09:24:07.251Z,27.31
2023-03-31T09:25:07.239Z,27.31
2023-03-31T09:26:07.389Z,27.29
2023-03-31T09:27:07.212Z,27.27
2023-03-31T09:28:07.203Z,27.29
2023-03-31T09:29:07.210Z,27.23
2023-03-31T09:30:07.263Z,27.24
2023-03-31T09:31:07.240Z,27.27
2023-03-31T09:32:07.196Z,27.30
2023-03-31T09:33:07.215Z,27.30
2023-03-31T09:34:07.186Z,27.30
2023-03-31T09:35:07.655Z,27.31
2023-03-31T09:36:07.421Z,27.33
2023-03-31T09:37:07.161Z,27.34
2023-03-31T09:38:07.144Z,27.34
2023-03-31T09:39:07.139Z,27.34
2023-03-31T09:40:07.181Z,27.38
2023-03-31T09:41:07.137Z,27.36
2023-03-31T09:42:07.118Z,27.33
2023-03-31T09:43:07.123Z,27.37
2023-03-31T09:44:07.120Z,27.38
2023-03-31T09:45:07.120Z,27.37
2023-03-31T09:46:10.041Z,27.40
2023-03-31T09:47:09.653Z,27.37
2023-03-31T09:48:07.204Z,27.37
2023-03-31T09:49:07.124Z,27.36
2023-03-31T09:50:07.064Z,27.36
2023-03-31T09:51:07.168Z,27.36
2023-03-31T09:52:07.064Z,27.34
2023-03-31T09:53:07.060Z,27.37
2023-03-31T09:54:07.204Z,27.34
2023-03-31T09:55:07.035Z,27.36
2023-03-31T09:56:07.170Z,27.31
2023-03-31T09:57:07.051Z,27.31
2023-03-31T09:58:07.032Z,27.26
2023-03-31T09:59:07.050Z,27.24
2023-03-31T10:00:07.018Z,27.23
2023-03-31T10:01:07.315Z,27.15
2023-03-31T10:02:07.013Z,27.07
2023-03-31T10:03:07.023Z,27.04
2023-03-31T10:04:06.994Z,27.03
2023-03-31T10:05:07.208Z,26.99
2023-03-31T10:06:06.951Z,26.96
2023-03-31T10:07:06.979Z,26.93
2023-03-31T10:08:06.949Z,26.87
2023-03-31T10:09:06.946Z,26.85
2023-03-31T10:10:07.212Z,26.69
2023-03-31T10:11:07.181Z,26.64
2023-03-31T10:12:06.935Z,26.64
2023-03-31T10:13:06.900Z,26.48
2023-03-31T10:14:06.910Z,26.30
2023-03-31T10:15:06.941Z,26.07
2023-03-31T10:16:06.932Z,25.69
2023-03-31T10:17:06.930Z,25.66
2023-03-31T10:18:06.905Z,25.59
2023-03-31T10:19:06.881Z,25.56
2023-03-31T10:20:07.193Z,25.44
2023-03-31T10:21:07.106Z,25.32
2023-03-31T10:22:06.875Z,25.36
2023-03-31T10:23:06.846Z,25.22
2023-03-31T10:24:06.832Z,25.25
2023-03-31T10:25:06.858Z,25.25
2023-03-31T10:26:06.842Z,25.36
2023-03-31T10:27:06.867Z,25.22
2023-03-31T10:28:06.900Z,25.37
2023-03-31T10:29:06.914Z,25.49
2023-03-31T10:30:06.959Z,25.57
2023-03-31T10:31:07.413Z,25.61
2023-03-31T10:32:06.964Z,25.73
2023-03-31T10:33:18.982Z,25.77
2023-03-31T10:34:07.983Z,25.85
2023-03-31T10:35:07.004Z,25.92
2023-03-31T10:36:06.981Z,26.01
2023-03-31T10:37:06.941Z,26.07
2023-03-31T10:38:06.947Z,26.12
2023-03-31T10:39:06.946Z,26.21
2023-03-31T10:40:07.182Z,26.27
2023-03-31T10:41:07.108Z,26.30
2023-03-31T10:42:06.928Z,26.39
2023-03-31T10:43:06.905Z,26.48
2023-03-31T10:44:06.906Z,26.52
2023-03-31T10:45:06.888Z,26.55
2023-03-31T10:46:06.903Z,26.59
2023-03-31T10:47:06.910Z,26.63
2023-03-31T10:48:06.995Z,26.68
2023-03-31T10:49:06.860Z,26.73
2023-03-31T10:50:06.847Z,26.76
2023-03-31T10:51:07.328Z,26.78
2023-03-31T10:52:06.878Z,26.79
2023-03-31T10:53:06.953Z,26.85
2023-03-31T10:54:07.000Z,26.85
2023-03-31T10:55:07.092Z,26.86
2023-03-31T10:56:07.182Z,26.90
2023-03-31T10:57:07.240Z,26.92
2023-03-31T10:58:07.259Z,26.93
2023-03-31T10:59:07.335Z,26.93
2023-03-31T11:00:07.402Z,26.94
2023-03-31T11:01:07.798Z,26.97
2023-03-31T11:02:07.626Z,26.96
2023-03-31T11:03:07.688Z,26.99
2023-03-31T11:04:07.803Z,26.99
2023-03-31T11:05:07.699Z,26.99
2023-03-31T11:06:08.199Z,27.02
2023-03-31T11:07:07.846Z,27.00
2023-03-31T11:08:07.942Z,27.03
2023-03-31T11:09:07.988Z,27.04
2023-03-31T11:10:08.005Z,27.06
2023-03-31T11:11:08.402Z,27.02
2023-03-31T11:12:08.128Z,27.02
2023-03-31T11:13:08.170Z,27.00
2023-03-31T11:14:08.267Z,26.94
2023-03-31T11:15:08.328Z,26.92
2023-03-31T11:16:08.496Z,26.86
2023-03-31T11:17:08.441Z,26.83
2023-03-31T11:18:08.484Z,26.76
2023-03-31T11:19:08.436Z,26.76
2023-03-31T11:20:08.487Z,26.73
2023-03-31T11:21:08.660Z,26.72
2023-03-31T11:22:08.546Z,26.73
2023-03-31T11:23:08.567Z,26.73
2023-03-31T11:24:08.625Z,26.73
2023-03-31T11:25:08.598Z,26.73
2023-03-31T11:26:08.667Z,26.75
2023-03-31T11:27:08.654Z,26.75
2023-03-31T11:28:08.695Z,26.78
2023-03-31T11:29:08.754Z,26.76
2023-03-31T11:30:08.801Z,26.76
2023-03-31T11:31:09.075Z,26.76
2023-03-31T11:32:08.950Z,26.78
2023-03-31T11:33:08.945Z,26.81
2023-03-31T11:34:08.928Z,26.78
2023-03-31T11:35:08.993Z,26.79
2023-03-31T11:36:09.102Z,26.78
2023-03-31T11:37:09.075Z,26.78
2023-03-31T11:38:09.112Z,26.78
2023-03-31T11:39:09.188Z,26.78
2023-03-31T11:40:09.233Z,26.79
2023-03-31T11:41:09.431Z,26.79
2023-03-31T11:42:09.358Z,26.79
2023-03-31T11:43:09.424Z,26.78
2023-03-31T11:44:09.461Z,26.79
2023-03-31T11:45:09.524Z,26.78
2023-03-31T11:46:09.830Z,26.76
2023-03-31T11:47:09.680Z,26.78
2023-03-31T11:48:09.706Z,26.78
2023-03-31T11:49:09.758Z,26.78
2023-03-31T11:50:09.803Z,26.79
2023-03-31T11:51:09.882Z,26.78
2023-03-31T11:52:09.936Z,26.78
2023-03-31T11:53:09.971Z,26.76
2023-03-31T11:54:10.016Z,26.76
2023-03-31T11:55:10.054Z,26.78
2023-03-31T11:56:10.090Z,26.75
2023-03-31T11:57:10.178Z,26.81
2023-03-31T11:58:10.201Z,26.76
2023-03-31T11:59:10.245Z,26.78
2023-03-31T12:00:10.286Z,26.78
2023-03-31T12:01:10.309Z,26.76
2023-03-31T12:02:10.706Z,26.76
2023-03-31T12:03:10.510Z,26.73
2023-03-31T12:04:10.503Z,26.75
2023-03-31T12:05:10.499Z,26.73
2023-03-31T12:06:10.804Z,26.73
2023-03-31T12:07:10.579Z,26.73
2023-03-31T12:08:10.601Z,26.75
2023-03-31T12:09:10.654Z,26.73
2023-03-31T12:10:10.658Z,26.75
2023-03-31T12:11:10.671Z,26.71
2023-03-31T12:12:10.702Z,26.71
2023-03-31T12:13:10.722Z,26.73
2023-03-31T12:14:10.770Z,26.72
2023-03-31T12:15:10.758Z,26.72
2023-03-31T12:16:10.821Z,26.73
2023-03-31T12:17:10.796Z,26.75
2023-03-31T12:18:10.917Z,26.75
2023-03-31T12:19:10.856Z,26.73
2023-03-31T12:20:10.913Z,26.76
2023-03-31T12:21:10.924Z,26.71
2023-03-31T12:22:10.971Z,26.73
2023-03-31T12:23:10.994Z,26.72
2023-03-31T12:24:10.991Z,26.73
2023-03-31T12:25:11.016Z,26.72
2023-03-31T12:26:11.071Z,26.73
2023-03-31T12:27:11.098Z,26.73
2023-03-31T12:28:11.131Z,26.75
2023-03-31T12:29:11.189Z,26.75
2023-03-31T12:30:11.206Z,26.73
2023-03-31T12:31:11.300Z,26.75
2023-03-31T12:32:11.293Z,26.76
2023-03-31T12:33:11.375Z,26.76
2023-03-31T12:34:11.363Z,26.75
2023-03-31T12:35:11.410Z,26.76
2023-03-31T12:36:11.471Z,26.76
2023-03-31T12:37:11.492Z,26.75
2023-03-31T12:38:11.621Z,26.75
2023-03-31T12:39:11.580Z,26.73
2023-03-31T12:40:11.660Z,26.78
2023-03-31T12:41:11.687Z,26.76
2023-03-31T12:42:11.731Z,26.76
2023-03-31T12:43:11.781Z,26.78
2023-03-31T12:44:11.843Z,26.78
2023-03-31T12:45:11.889Z,26.76
2023-03-31T12:46:11.999Z,26.75
2023-03-31T12:47:11.934Z,26.75
2023-03-31T12:48:12.068Z,26.73
2023-03-31T12:49:12.001Z,26.73
2023-03-31T12:50:12.147Z,26.72
2023-03-31T12:51:12.095Z,26.72
2023-03-31T12:52:12.139Z,26.75
2023-03-31T12:53:12.157Z,26.75